Time;durP1;ratioP1;P1;durP2;ratioP2;P2;SDS_P1;SDS_P2;PMS_P1;PMS_P2;Temp;Humidity;BMP_temperature;BMP_pressure;BME280_temperature;BME280_humidity;BME280_pressure;Samples;Min_cycle;Max_cycle;Signal;HPM_P1;HPM_P2
2024/01/09 00:01:42;;;;;;;1359.60;999.90;;;;;;;;;;5029783;28;20032;-67
2024/01/09 00:04:08;;;;;;;1408.28;999.90;;;;;;;;;;5035393;28;20029;-68
2024/01/09 00:06:35;;;;;;;1414.88;999.90;;;;;;;;;;5035269;28;20021;-67
2024/01/09 00:09:02;;;;;;;1418.93;999.90;;;;;;;;;;5035225;28;20041;-67
2024/01/09 00:11:29;;;;;;;1433.82;999.90;;;;;;;;;;5035370;28;20037;-68
2024/01/09 00:13:56;;;;;;;1424.57;999.90;;;;;;;;;;5035273;28;20017;-68
2024/01/09 00:16:23;;;;;;;1439.78;999.90;;;;;;;;;;5035627;28;20032;-67
2024/01/09 00:18:53;;;;;;;1429.60;999.90;;;;;;;;;;5035519;28;20433;-69
2024/01/09 00:21:20;;;;;;;1441.65;999.90;;;;;;;;;;5035378;28;20029;-67
2024/01/09 00:23:47;;;;;;;1427.10;999.90;;;;;;;;;;5035227;28;20029;-68
2024/01/09 00:26:14;;;;;;;1403.60;999.90;;;;;;;;;;5035121;28;20045;-68
2024/01/09 00:28:40;;;;;;;1419.50;999.90;;;;;;;;;;5035239;28;20084;-69
2024/01/09 00:31:07;;;;;;;1414.88;999.90;;;;;;;;;;5035187;28;20594;-68
2024/01/09 00:33:34;;;;;;;1380.72;999.90;;;;;;;;;;5035008;28;20533;-68
2024/01/09 00:36:03;;;;;;;1387.93;999.90;;;;;;;;;;5034839;28;20021;-67
2024/01/09 00:38:30;;;;;;;1407.63;999.90;;;;;;;;;;5034236;28;20092;-68
2024/01/09 00:40:57;;;;;;;1387.95;999.90;;;;;;;;;;5034760;28;20024;-67
2024/01/09 00:43:23;;;;;;;1400.72;999.90;;;;;;;;;;5034636;28;20103;-68
2024/01/09 00:45:50;;;;;;;1405.05;999.90;;;;;;;;;;5034552;28;20057;-68
2024/01/09 00:48:17;;;;;;;1403.65;999.90;;;;;;;;;;5034456;28;20513;-67
2024/01/09 00:50:43;;;;;;;1411.47;999.90;;;;;;;;;;5034551;28;20383;-68
2024/01/09 00:53:10;;;;;;;1446.88;999.90;;;;;;;;;;5034290;28;20022;-68
2024/01/09 00:55:37;;;;;;;1418.85;999.90;;;;;;;;;;5034397;28;20021;-68
2024/01/09 00:58:03;;;;;;;1408.18;999.90;;;;;;;;;;5034356;28;20025;-68
2024/01/09 01:00:30;;;;;;;1451.80;999.90;;;;;;;;;;5034162;28;20060;-68
2024/01/09 01:02:56;;;;;;;1368.13;999.90;;;;;;;;;;5034359;28;20052;-68
2024/01/09 01:05:23;;;;;;;1406.65;999.90;;;;;;;;;;5031603;28;20108;-68
2024/01/09 01:07:50;;;;;;;1392.22;999.90;;;;;;;;;;5033424;28;20109;-68
2024/01/09 01:10:16;;;;;;;1407.10;999.90;;;;;;;;;;5031386;28;20033;-68
2024/01/09 01:12:43;;;;;;;1410.57;999.90;;;;;;;;;;5033722;28;20371;-67
2024/01/09 01:15:10;;;;;;;1427.13;999.90;;;;;;;;;;5033104;28;20026;-68
2024/01/09 01:17:36;;;;;;;1418.53;999.90;;;;;;;;;;5033723;28;20014;-67
2024/01/09 01:20:03;;;;;;;1406.13;999.90;;;;;;;;;;5033482;28;20041;-68
2024/01/09 01:22:30;;;;;;;1385.05;999.90;;;;;;;;;;5032710;28;20068;-68
2024/01/09 01:24:57;;;;;;;1408.90;999.90;;;;;;;;;;5033717;28;20044;-68
2024/01/09 01:27:24;;;;;;;1443.95;999.90;;;;;;;;;;5033677;28;20037;-68
2024/01/09 01:29:50;;;;;;;1414.65;999.90;;;;;;;;;;5033647;28;20013;-68
2024/01/09 01:32:17;;;;;;;1443.20;999.90;;;;;;;;;;5033819;28;20092;-68
2024/01/09 01:34:43;;;;;;;1445.68;999.90;;;;;;;;;;5033596;28;20017;-70
2024/01/09 01:37:10;;;;;;;1466.70;999.90;;;;;;;;;;5033534;28;20063;-68
2024/01/09 01:39:37;;;;;;;1452.70;999.90;;;;;;;;;;5033554;28;20033;-68
2024/01/09 01:42:04;;;;;;;1456.68;999.90;;;;;;;;;;5032510;28;20022;-68
2024/01/09 01:44:30;;;;;;;1495.63;999.90;;;;;;;;;;5031019;28;20024;-68
2024/01/09 01:46:57;;;;;;;1448.90;999.90;;;;;;;;;;5031596;28;20032;-67
2024/01/09 01:49:24;;;;;;;1474.90;999.90;;;;;;;;;;5031896;28;20049;-67
2024/01/09 01:51:51;;;;;;;1470.88;999.90;;;;;;;;;;5031849;28;20113;-67
2024/01/09 01:54:18;;;;;;;1483.05;999.90;;;;;;;;;;5031979;28;20022;-67
2024/01/09 01:56:47;;;;;;;1468.25;999.90;;;;;;;;;;5030345;28;20033;-68
2024/01/09 01:59:16;;;;;;;1465.25;999.90;;;;;;;;;;5030354;28;20017;-67
2024/01/09 02:01:43;;;;;;;1467.78;999.90;;;;;;;;;;5033365;28;20053;-68
2024/01/09 02:04:11;;;;;;;1461.85;999.90;;;;;;;;;;5033200;28;20025;-68
2024/01/09 02:06:38;;;;;;;1466.97;999.90;;;;;;;;;;5033091;28;20021;-69
2024/01/09 02:09:05;;;;;;;1477.60;999.90;;;;;;;;;;5033073;28;20021;-68
2024/01/09 02:11:32;;;;;;;1474.10;999.90;;;;;;;;;;5033079;28;20017;-68
2024/01/09 02:13:59;;;;;;;1449.18;999.90;;;;;;;;;;5032971;28;20444;-67
2024/01/09 02:16:25;;;;;;;1476.80;999.90;;;;;;;;;;5034811;28;20049;-67
2024/01/09 02:18:52;;;;;;;1426.72;999.90;;;;;;;;;;5032965;28;20018;-68
2024/01/09 02:21:18;;;;;;;1485.32;999.90;;;;;;;;;;5032529;28;20029;-67
2024/01/09 02:23:45;;;;;;;1489.03;999.90;;;;;;;;;;5032903;28;20267;-67
2024/01/09 02:26:14;;;;;;;1490.38;999.90;;;;;;;;;;5032738;28;20578;-68
2024/01/09 02:28:47;;;;;;;1483.38;999.90;;;;;;;;;;5031489;28;20030;-67
2024/01/09 02:31:14;;;;;;;1474.25;999.90;;;;;;;;;;5032616;28;20021;-67
2024/01/09 02:33:41;;;;;;;1481.85;999.90;;;;;;;;;;5032758;28;20013;-68
2024/01/09 02:36:07;;;;;;;1468.70;999.90;;;;;;;;;;5032752;28;20533;-68
2024/01/09 02:38:34;;;;;;;1457.38;999.90;;;;;;;;;;5032928;28;20030;-67
2024/01/09 02:41:01;;;;;;;1443.53;999.90;;;;;;;;;;5032745;28;20530;-68
2024/01/09 02:43:27;;;;;;;1443.80;999.90;;;;;;;;;;5032658;28;20021;-67
2024/01/09 02:45:54;;;;;;;1445.22;999.90;;;;;;;;;;5032895;28;20055;-67
2024/01/09 02:48:21;;;;;;;1421.07;999.90;;;;;;;;;;5032905;28;20379;-67
2024/01/09 02:50:47;;;;;;;1420.82;999.90;;;;;;;;;;5032656;28;20041;-67
2024/01/09 02:53:14;;;;;;;1407.28;999.90;;;;;;;;;;5030015;28;20022;-69
2024/01/09 02:55:40;;;;;;;1442.20;999.90;;;;;;;;;;5032550;28;20022;-67
2024/01/09 02:58:07;;;;;;;1452.25;999.90;;;;;;;;;;5031536;28;20029;-67
2024/01/09 03:00:33;;;;;;;1432.90;999.90;;;;;;;;;;5030070;28;20104;-69
2024/01/09 03:03:00;;;;;;;1431.40;999.90;;;;;;;;;;5032718;28;20114;-67
2024/01/09 03:05:27;;;;;;;1427.95;999.90;;;;;;;;;;5032513;28;20022;-67
2024/01/09 03:07:53;;;;;;;1427.07;999.90;;;;;;;;;;5032707;28;20022;-67
2024/01/09 03:10:20;;;;;;;1416.00;999.90;;;;;;;;;;5032904;28;20021;-67
2024/01/09 03:12:46;;;;;;;1420.18;999.90;;;;;;;;;;5032934;28;20017;-67
2024/01/09 03:15:13;;;;;;;1419.85;999.90;;;;;;;;;;5032962;28;20018;-67
2024/01/09 03:17:40;;;;;;;1337.45;999.90;;;;;;;;;;5032959;28;20024;-67
2024/01/09 03:20:07;;;;;;;1423.22;999.90;;;;;;;;;;5032793;28;20028;-67
2024/01/09 03:22:33;;;;;;;1389.78;999.90;;;;;;;;;;5032627;28;20025;-67
2024/01/09 03:25:00;;;;;;;1383.97;999.90;;;;;;;;;;5032302;28;20052;-67
2024/01/09 03:27:27;;;;;;;1413.47;999.90;;;;;;;;;;5032576;28;20450;-67
2024/01/09 03:29:53;;;;;;;1397.53;999.90;;;;;;;;;;5032621;28;20018;-67
2024/01/09 03:32:20;;;;;;;1400.70;999.90;;;;;;;;;;5032738;28;20026;-67
2024/01/09 03:34:46;;;;;;;1424.10;999.90;;;;;;;;;;5035909;28;20017;-67
2024/01/09 03:37:13;;;;;;;1435.65;999.90;;;;;;;;;;5036213;28;20040;-67
2024/01/09 03:39:40;;;;;;;1365.72;999.90;;;;;;;;;;5036389;28;20079;-67
2024/01/09 03:42:06;;;;;;;1438.72;999.90;;;;;;;;;;5036303;28;20533;-67
2024/01/09 03:44:33;;;;;;;1434.75;999.90;;;;;;;;;;5035781;28;20033;-67
2024/01/09 03:46:59;;;;;;;1367.25;999.90;;;;;;;;;;5036361;28;20017;-67
2024/01/09 03:49:26;;;;;;;1449.20;999.90;;;;;;;;;;5036033;28;20025;-67
2024/01/09 03:51:53;;;;;;;1435.47;999.90;;;;;;;;;;5035962;28;20022;-67
2024/01/09 03:54:19;;;;;;;1355.72;999.90;;;;;;;;;;5036218;28;20021;-67
2024/01/09 03:56:46;;;;;;;1435.13;999.90;;;;;;;;;;5036010;28;20025;-67
2024/01/09 03:59:13;;;;;;;1367.88;999.90;;;;;;;;;;5036101;28;20100;-67
2024/01/09 04:01:40;;;;;;;1439.88;999.90;;;;;;;;;;5035765;28;20083;-67
2024/01/09 04:04:06;;;;;;;1431.20;999.90;;;;;;;;;;5035802;28;20041;-66
2024/01/09 04:06:34;;;;;;;1421.93;999.90;;;;;;;;;;5035800;28;20029;-67
2024/01/09 04:09:00;;;;;;;1438.88;999.90;;;;;;;;;;5035857;28;20037;-67
2024/01/09 04:11:27;;;;;;;1415.40;999.90;;;;;;;;;;5035591;28;20097;-67
2024/01/09 04:13:53;;;;;;;1444.85;999.90;;;;;;;;;;5035743;28;20030;-67
2024/01/09 04:16:20;;;;;;;1453.93;999.90;;;;;;;;;;5035480;28;20398;-67
2024/01/09 04:18:47;;;;;;;1456.15;999.90;;;;;;;;;;5035611;28;20048;-67
2024/01/09 04:21:13;;;;;;;1457.05;999.90;;;;;;;;;;5035493;28;20041;-67
2024/01/09 04:23:40;;;;;;;1445.28;999.90;;;;;;;;;;5035399;28;20022;-67
2024/01/09 04:26:06;;;;;;;1384.18;999.90;;;;;;;;;;5035398;28;20065;-67
2024/01/09 04:28:33;;;;;;;1435.57;999.90;;;;;;;;;;5035261;28;20021;-67
2024/01/09 04:31:00;;;;;;;1450.57;999.90;;;;;;;;;;5035247;28;20018;-67
2024/01/09 04:33:26;;;;;;;1462.53;999.90;;;;;;;;;;5035422;28;20497;-66
2024/01/09 04:35:54;;;;;;;1449.60;999.90;;;;;;;;;;5035267;28;20029;-67
2024/01/09 04:38:20;;;;;;;1454.10;999.90;;;;;;;;;;5034399;28;20164;-68
2024/01/09 04:40:47;;;;;;;1460.65;999.90;;;;;;;;;;5034462;28;20037;-68
2024/01/09 04:43:13;;;;;;;1435.47;999.90;;;;;;;;;;5034789;28;20024;-68
2024/01/09 04:45:40;;;;;;;1462.03;999.90;;;;;;;;;;5034283;28;20075;-68
2024/01/09 04:48:08;;;;;;;1468.32;999.90;;;;;;;;;;5035054;28;20105;-70
2024/01/09 04:50:34;;;;;;;1466.85;999.90;;;;;;;;;;5034538;28;20099;-68
2024/01/09 04:53:01;;;;;;;1427.60;999.90;;;;;;;;;;5034546;28;20025;-65
2024/01/09 04:55:27;;;;;;;1418.72;999.90;;;;;;;;;;5034345;28;20041;-67
2024/01/09 04:57:54;;;;;;;1419.50;999.90;;;;;;;;;;5034468;28;20026;-67
2024/01/09 05:00:22;;;;;;;1479.80;999.90;;;;;;;;;;5034378;28;20021;-67
2024/01/09 05:02:49;;;;;;;1470.97;999.90;;;;;;;;;;5034419;28;20020;-68
2024/01/09 05:05:15;;;;;;;1474.20;999.90;;;;;;;;;;5034353;28;20033;-67
2024/01/09 05:07:42;;;;;;;1473.03;999.90;;;;;;;;;;5034334;28;20410;-66
2024/01/09 05:10:09;;;;;;;1414.32;999.90;;;;;;;;;;5034302;28;20014;-67
2024/01/09 05:12:35;;;;;;;1448.60;999.90;;;;;;;;;;5034227;28;20056;-66
2024/01/09 05:15:02;;;;;;;1491.15;999.90;;;;;;;;;;5028956;28;20099;-66
2024/01/09 05:17:28;;;;;;;1434.95;999.90;;;;;;;;;;5034203;28;20020;-66
2024/01/09 05:19:55;;;;;;;1497.93;999.90;;;;;;;;;;5034154;28;20068;-66
2024/01/09 05:22:21;;;;;;;1480.70;999.90;;;;;;;;;;5033922;28;20017;-66
2024/01/09 05:24:48;;;;;;;1441.13;999.90;;;;;;;;;;5034168;28;20025;-66
2024/01/09 05:27:15;;;;;;;1456.20;999.90;;;;;;;;;;5034036;28;20491;-67
2024/01/09 05:29:41;;;;;;;1448.80;999.90;;;;;;;;;;5034237;28;20032;-66
2024/01/09 05:32:08;;;;;;;1438.15;999.90;;;;;;;;;;5034198;28;20116;-68
2024/01/09 05:34:34;;;;;;;1407.72;999.90;;;;;;;;;;5025422;28;20022;-68
2024/01/09 05:37:01;;;;;;;1384.07;999.90;;;;;;;;;;5034147;28;20200;-69
2024/01/09 05:39:28;;;;;;;1456.93;999.90;;;;;;;;;;5034336;28;20022;-68
2024/01/09 05:41:55;;;;;;;1428.78;999.90;;;;;;;;;;5034043;28;20022;-68
2024/01/09 05:44:22;;;;;;;1419.15;999.90;;;;;;;;;;5033813;28;20079;-66
2024/01/09 05:46:50;;;;;;;1465.25;999.90;;;;;;;;;;5033516;28;20043;-67
2024/01/09 05:49:16;;;;;;;1455.03;999.90;;;;;;;;;;5033372;28;20029;-67
2024/01/09 05:51:43;;;;;;;1423.60;999.90;;;;;;;;;;5032263;28;20018;-66
2024/01/09 05:54:10;;;;;;;1389.10;999.90;;;;;;;;;;5030411;28;20163;-64
2024/01/09 05:56:37;;;;;;;1427.80;999.90;;;;;;;;;;5032025;28;20022;-67
2024/01/09 05:59:04;;;;;;;1452.43;999.90;;;;;;;;;;5029959;28;20025;-67
2024/01/09 06:01:30;;;;;;;1424.75;999.90;;;;;;;;;;5032339;28;20490;-70
2024/01/09 06:03:57;;;;;;;1447.20;999.90;;;;;;;;;;5032654;28;20071;-66
2024/01/09 06:06:23;;;;;;;1395.75;999.90;;;;;;;;;;5032892;28;20382;-67
2024/01/09 06:08:50;;;;;;;1453.97;999.90;;;;;;;;;;5031821;28;20017;-67
2024/01/09 06:11:17;;;;;;;1426.53;999.90;;;;;;;;;;5032465;28;20025;-66
2024/01/09 06:13:43;;;;;;;1432.25;999.90;;;;;;;;;;5032522;28;20017;-68
2024/01/09 06:16:10;;;;;;;1412.75;999.90;;;;;;;;;;5032740;28;20021;-69
2024/01/09 06:18:36;;;;;;;1430.10;999.90;;;;;;;;;;5033946;28;20108;-64
2024/01/09 06:21:03;;;;;;;1438.47;999.90;;;;;;;;;;5033099;28;20025;-65
2024/01/09 06:23:30;;;;;;;1452.72;999.90;;;;;;;;;;5033401;28;20090;-67
2024/01/09 06:25:56;;;;;;;1433.75;999.90;;;;;;;;;;5033276;28;20045;-64
2024/01/09 06:28:23;;;;;;;1424.97;999.90;;;;;;;;;;5029730;28;20033;-67
2024/01/09 06:30:50;;;;;;;1440.47;999.90;;;;;;;;;;5032381;28;20028;-70
2024/01/09 06:33:16;;;;;;;1428.50;999.90;;;;;;;;;;5032413;28;20486;-67
2024/01/09 06:35:43;;;;;;;1442.45;999.90;;;;;;;;;;5032351;28;20467;-68
2024/01/09 06:38:09;;;;;;;1403.97;999.90;;;;;;;;;;5033449;28;20029;-70
2024/01/09 06:40:36;;;;;;;1429.50;999.90;;;;;;;;;;5033060;28;20029;-68
2024/01/09 06:43:03;;;;;;;1404.70;999.90;;;;;;;;;;5032712;28;20029;-70
2024/01/09 06:45:29;;;;;;;1422.22;999.90;;;;;;;;;;5032897;28;20067;-64
2024/01/09 06:47:56;;;;;;;1423.80;999.90;;;;;;;;;;5033075;28;20099;-67
2024/01/09 06:50:22;;;;;;;1415.65;999.90;;;;;;;;;;5032383;28;20041;-69
2024/01/09 06:52:49;;;;;;;1408.10;999.90;;;;;;;;;;5031946;28;20033;-68
2024/01/09 06:55:16;;;;;;;1368.40;999.90;;;;;;;;;;5032121;28;20017;-67
2024/01/09 06:57:42;;;;;;;1442.45;999.90;;;;;;;;;;5032303;28;20460;-68
2024/01/09 07:00:09;;;;;;;1429.97;999.90;;;;;;;;;;5030545;28;20041;-68
2024/01/09 07:02:36;;;;;;;1447.63;999.90;;;;;;;;;;5032067;28;20028;-69
2024/01/09 07:05:04;;;;;;;1434.50;999.90;;;;;;;;;;5032361;28;20017;-66
2024/01/09 07:07:31;;;;;;;1417.40;999.90;;;;;;;;;;5033479;28;20021;-67
2024/01/09 07:09:57;;;;;;;1483.68;999.90;;;;;;;;;;5035975;28;20017;-68
2024/01/09 07:12:24;;;;;;;1440.35;999.90;;;;;;;;;;5036071;28;20025;-68
2024/01/09 07:14:50;;;;;;;1491.60;999.90;;;;;;;;;;5036055;28;20070;-67
2024/01/09 07:17:17;;;;;;;1474.95;999.90;;;;;;;;;;5036297;28;20032;-67
2024/01/09 07:19:44;;;;;;;1472.97;999.90;;;;;;;;;;5036006;28;20048;-67
2024/01/09 07:22:10;;;;;;;1434.32;999.90;;;;;;;;;;5035974;28;20052;-67
2024/01/09 07:24:37;;;;;;;1459.72;999.90;;;;;;;;;;5034907;28;20092;-68
2024/01/09 07:27:03;;;;;;;1450.22;999.90;;;;;;;;;;5034027;28;20048;-67
2024/01/09 07:29:30;;;;;;;1449.03;999.90;;;;;;;;;;5033590;28;20492;-67
2024/01/09 07:31:57;;;;;;;1445.00;999.90;;;;;;;;;;5034957;28;20028;-68
2024/01/09 07:34:23;;;;;;;1435.80;999.90;;;;;;;;;;5035903;28;20453;-68
2024/01/09 07:36:50;;;;;;;1465.88;999.90;;;;;;;;;;5035806;28;20101;-68
2024/01/09 07:39:16;;;;;;;1458.68;999.90;;;;;;;;;;5035666;28;20041;-70
2024/01/09 07:41:43;;;;;;;1430.85;999.90;;;;;;;;;;5036047;28;20067;-66
2024/01/09 07:44:10;;;;;;;1435.88;999.90;;;;;;;;;;5035297;28;20032;-67
2024/01/09 07:46:36;;;;;;;1449.60;999.90;;;;;;;;;;5035038;28;20037;-68
2024/01/09 07:49:03;;;;;;;1445.25;999.90;;;;;;;;;;5035158;28;20033;-68
2024/01/09 07:51:30;;;;;;;1447.20;999.90;;;;;;;;;;5035381;28;20017;-67
2024/01/09 07:53:56;;;;;;;1465.88;999.90;;;;;;;;;;5034699;28;20048;-68
2024/01/09 07:56:23;;;;;;;1422.70;999.90;;;;;;;;;;5035282;28;20029;-67
2024/01/09 07:58:49;;;;;;;1445.43;999.90;;;;;;;;;;5035252;28;20025;-68
2024/01/09 08:01:17;;;;;;;1417.50;999.90;;;;;;;;;;5031602;28;20108;-68
2024/01/09 08:03:44;;;;;;;1458.57;999.90;;;;;;;;;;5035307;28;20100;-67
2024/01/09 08:06:19;;;;;;;1441.57;999.90;;;;;;;;;;5034927;28;20471;-66
2024/01/09 08:08:46;;;;;;;1464.80;999.90;;;;;;;;;;5033672;28;20053;-66
2024/01/09 08:11:13;;;;;;;1441.40;999.90;;;;;;;;;;5035166;28;20021;-66
2024/01/09 08:13:40;;;;;;;1439.40;999.90;;;;;;;;;;5034798;28;20467;-66
2024/01/09 08:16:08;;;;;;;1434.90;999.90;;;;;;;;;;5034737;28;20489;-67
2024/01/09 08:18:36;;;;;;;1450.88;999.90;;;;;;;;;;5033969;28;20029;-67
2024/01/09 08:21:04;;;;;;;1451.32;999.90;;;;;;;;;;5033233;28;20021;-67
2024/01/09 08:23:30;;;;;;;1457.97;999.90;;;;;;;;;;5034356;28;20097;-68
2024/01/09 08:25:57;;;;;;;1448.00;999.90;;;;;;;;;;5034460;28;20033;-68
2024/01/09 08:28:24;;;;;;;1428.03;999.90;;;;;;;;;;5033585;28;20013;-68
2024/01/09 08:30:51;;;;;;;1444.85;999.90;;;;;;;;;;5034730;28;20087;-68
2024/01/09 08:33:17;;;;;;;1423.32;999.90;;;;;;;;;;5034970;28;20021;-67
2024/01/09 08:35:49;;;;;;;1434.95;999.90;;;;;;;;;;5035179;28;20028;-70
2024/01/09 08:38:15;;;;;;;;;;;;;;;;;;5034623;28;20493;-70
2024/01/09 08:40:42;;;;;;;1414.15;999.90;;;;;;;;;;5035802;28;19905;-70
2024/01/09 08:43:09;;;;;;;1440.78;999.90;;;;;;;;;;5035219;28;20036;-70
2024/01/09 08:45:37;;;;;;;1434.32;999.90;;;;;;;;;;5034057;28;20021;-68
2024/01/09 08:48:03;;;;;;;1436.82;999.90;;;;;;;;;;5034631;28;20033;-68
2024/01/09 08:50:30;;;;;;;1430.13;999.90;;;;;;;;;;5034663;28;20029;-68
2024/01/09 08:52:56;;;;;;;1433.32;999.90;;;;;;;;;;5034814;28;20060;-67
2024/01/09 08:55:23;;;;;;;1440.85;999.90;;;;;;;;;;5034916;28;20025;-68
2024/01/09 08:57:50;;;;;;;1436.68;999.90;;;;;;;;;;5034751;28;20040;-68
2024/01/09 09:00:17;;;;;;;1442.03;999.90;;;;;;;;;;5034632;28;20044;-69
2024/01/09 09:02:43;;;;;;;1411.57;999.90;;;;;;;;;;5034755;28;20018;-70
2024/01/09 09:05:11;;;;;;;1393.68;999.90;;;;;;;;;;5035095;28;20517;-72
2024/01/09 09:07:38;;;;;;;1401.60;999.90;;;;;;;;;;5034381;28;20470;-67
2024/01/09 09:10:04;;;;;;;1426.07;999.90;;;;;;;;;;5031696;28;20064;-68
2024/01/09 09:12:31;;;;;;;1409.28;999.90;;;;;;;;;;5032465;28;20016;-69
2024/01/09 09:14:58;;;;;;;1411.93;999.90;;;;;;;;;;5032743;28;20021;-65
2024/01/09 09:17:24;;;;;;;1421.20;999.90;;;;;;;;;;5032690;28;20052;-67
2024/01/09 09:19:51;;;;;;;1432.35;999.90;;;;;;;;;;5032866;28;20021;-68
2024/01/09 09:22:18;;;;;;;1465.50;999.90;;;;;;;;;;5032946;28;20017;-69
2024/01/09 09:24:45;;;;;;;1443.75;999.90;;;;;;;;;;5033302;28;20377;-67
2024/01/09 09:27:11;;;;;;;1427.78;999.90;;;;;;;;;;5034421;28;20057;-68
2024/01/09 09:29:38;;;;;;;1412.95;999.90;;;;;;;;;;5034525;28;20493;-67
2024/01/09 09:32:05;;;;;;;1428.70;999.90;;;;;;;;;;5033381;28;20108;-68
2024/01/09 09:34:31;;;;;;;1412.53;999.90;;;;;;;;;;5033361;28;20026;-67
2024/01/09 09:36:58;;;;;;;1423.25;999.90;;;;;;;;;;5035147;28;20036;-69
2024/01/09 09:39:26;;;;;;;1407.75;999.90;;;;;;;;;;5033203;28;20482;-68
2024/01/09 09:41:57;;;;;;;1406.03;999.90;;;;;;;;;;5040843;28;20390;-68
2024/01/09 09:44:25;;;;;;;1424.93;999.90;;;;;;;;;;5052551;28;20405;-68
2024/01/09 09:46:51;;;;;;;1464.05;999.90;;;;;;;;;;5035742;28;20441;-68
2024/01/09 09:49:20;;;;;;;1428.70;999.90;;;;;;;;;;5033922;28;20026;-68
2024/01/09 09:51:48;;;;;;;1428.40;999.90;;;;;;;;;;5047618;28;20025;-69
2024/01/09 09:54:15;;;;;;;1437.60;999.90;;;;;;;;;;5053879;28;20035;-67
2024/01/09 09:56:42;;;;;;;1450.35;999.90;;;;;;;;;;5053772;28;20355;-68
2024/01/09 09:59:11;;;;;;;1431.00;999.90;;;;;;;;;;5053548;28;20419;-69
2024/01/09 10:01:38;;;;;;;1433.95;999.90;;;;;;;;;;5053519;28;20040;-69
2024/01/09 10:04:05;;;;;;;1423.93;999.90;;;;;;;;;;5038663;28;20057;-68
2024/01/09 10:06:32;;;;;;;1491.75;999.90;;;;;;;;;;5033500;28;20018;-68
2024/01/09 10:08:59;;;;;;;1496.95;999.90;;;;;;;;;;5033557;28;20033;-67
2024/01/09 10:11:26;;;;;;;1522.53;999.90;;;;;;;;;;5033699;28;20481;-68
2024/01/09 10:13:54;;;;;;;1452.07;999.90;;;;;;;;;;5023699;28;20025;-68
2024/01/09 10:16:20;;;;;;;1452.82;999.90;;;;;;;;;;5029529;28;20044;-70
2024/01/09 10:18:47;;;;;;;1465.68;999.90;;;;;;;;;;5033355;28;20033;-71
2024/01/09 10:21:13;;;;;;;1488.93;999.90;;;;;;;;;;5033456;28;20032;-69
2024/01/09 10:23:42;;;;;;;1531.57;999.90;;;;;;;;;;5033564;28;20048;-71
2024/01/09 10:26:11;;;;;;;1527.47;999.90;;;;;;;;;;5033348;28;20072;-68
2024/01/09 10:28:38;;;;;;;1503.20;999.90;;;;;;;;;;5033339;28;20025;-71
2024/01/09 10:31:08;;;;;;;1518.32;999.90;;;;;;;;;;5033686;28;20042;-70
2024/01/09 10:33:42;;;;;;;1524.60;999.90;;;;;;;;;;5033444;28;20021;-70
2024/01/09 10:36:09;;;;;;;1467.55;999.90;;;;;;;;;;5033282;28;20014;-69
2024/01/09 10:38:36;;;;;;;1498.60;999.90;;;;;;;;;;5033494;28;20031;-67
2024/01/09 10:41:14;;;;;;;1503.93;999.90;;;;;;;;;;5051720;28;20387;-66
2024/01/09 10:43:41;;;;;;;1488.97;999.90;;;;;;;;;;5052736;28;20394;-66
2024/01/09 10:46:08;;;;;;;1446.05;999.90;;;;;;;;;;5053258;28;20438;-66
2024/01/09 10:48:35;;;;;;;1492.75;999.90;;;;;;;;;;5053127;28;20025;-67
2024/01/09 10:51:02;;;;;;;1543.32;999.90;;;;;;;;;;5053118;28;20293;-66
2024/01/09 10:53:32;;;;;;;1485.32;999.90;;;;;;;;;;5053118;28;20064;-67
2024/01/09 10:56:00;;;;;;;1523.90;999.90;;;;;;;;;;5052991;28;20424;-68
2024/01/09 10:58:28;;;;;;;1544.22;999.90;;;;;;;;;;5052978;28;20040;-68
2024/01/09 11:00:55;;;;;;;1491.45;999.90;;;;;;;;;;5053084;28;20029;-67
2024/01/09 11:03:22;;;;;;;1511.45;999.90;;;;;;;;;;5053042;28;20474;-66
2024/01/09 11:05:50;;;;;;;1514.50;999.90;;;;;;;;;;5053064;28;20039;-68
2024/01/09 11:08:18;;;;;;;1502.90;999.90;;;;;;;;;;5053030;28;20363;-67
2024/01/09 11:10:45;;;;;;;1507.35;999.90;;;;;;;;;;5052859;28;20036;-66
2024/01/09 11:13:13;;;;;;;1510.53;999.90;;;;;;;;;;5053094;28;20462;-66
2024/01/09 11:15:46;;;;;;;1489.38;999.90;;;;;;;;;;5053115;28;20466;-68
2024/01/09 11:18:16;;;;;;;1475.75;999.90;;;;;;;;;;5052737;28;20381;-68
2024/01/09 11:20:43;;;;;;;1445.53;999.90;;;;;;;;;;5052831;28;20100;-67
2024/01/09 11:23:11;;;;;;;1489.80;999.90;;;;;;;;;;5052971;28;20025;-67
2024/01/09 11:25:38;;;;;;;1507.25;999.90;;;;;;;;;;5052699;28;20120;-67
2024/01/09 11:28:06;;;;;;;1493.65;999.90;;;;;;;;;;5019344;28;20053;-67
2024/01/09 11:30:33;;;;;;;1496.13;999.90;;;;;;;;;;5028167;28;20037;-66
2024/01/09 11:33:19;;;;;;;1508.85;999.90;;;;;;;;;;5025985;28;20068;-67
2024/01/09 11:35:46;;;;;;;1510.20;999.90;;;;;;;;;;5013119;28;20414;-67
2024/01/09 11:38:14;;;;;;;1495.75;999.90;;;;;;;;;;5012923;28;20108;-68
2024/01/09 11:40:45;;;;;;;1441.68;999.90;;;;;;;;;;5028481;28;20017;-67
2024/01/09 11:43:12;;;;;;;1513.23;999.90;;;;;;;;;;5025144;28;20030;-67
2024/01/09 11:45:40;;;;;;;1486.78;999.90;;;;;;;;;;5020003;28;20029;-69
2024/01/09 11:48:07;;;;;;;1503.38;999.90;;;;;;;;;;5021123;28;20080;-69
2024/01/09 11:50:34;;;;;;;1460.00;999.90;;;;;;;;;;5013199;28;20387;-67
2024/01/09 11:53:01;;;;;;;1491.70;999.90;;;;;;;;;;5012990;28;20057;-67
2024/01/09 11:55:29;;;;;;;1504.63;999.90;;;;;;;;;;5017054;28;20060;-67
2024/01/09 11:57:55;;;;;;;1495.63;999.90;;;;;;;;;;5036256;28;20439;-66
2024/01/09 12:00:23;;;;;;;1514.78;999.90;;;;;;;;;;5036048;28;20049;-68
2024/01/09 12:02:50;;;;;;;1500.80;999.90;;;;;;;;;;5036202;28;20493;-69
2024/01/09 12:05:17;;;;;;;1495.47;999.90;;;;;;;;;;5035931;28;20096;-68
2024/01/09 12:07:44;;;;;;;1491.97;999.90;;;;;;;;;;5035876;28;20017;-68
2024/01/09 12:10:11;;;;;;;1494.75;999.90;;;;;;;;;;5035979;28;20030;-68
2024/01/09 12:12:37;;;;;;;1511.28;999.90;;;;;;;;;;5036001;28;20017;-68
2024/01/09 12:15:05;;;;;;;1514.18;999.90;;;;;;;;;;5035787;28;20360;-68
2024/01/09 12:17:35;;;;;;;1492.82;999.90;;;;;;;;;;5036096;28;20021;-67
2024/01/09 12:20:02;;;;;;;1425.53;999.90;;;;;;;;;;5030156;28;20507;-66
2024/01/09 12:22:31;;;;;;;1487.55;999.90;;;;;;;;;;5015792;28;20479;-68
2024/01/09 12:24:58;;;;;;;1501.55;999.90;;;;;;;;;;5015740;28;20029;-68
2024/01/09 12:27:26;;;;;;;1508.60;999.90;;;;;;;;;;5015657;28;20058;-68
2024/01/09 12:29:52;;;;;;;1460.80;999.90;;;;;;;;;;5015535;28;20026;-66
2024/01/09 12:32:22;;;;;;;1495.60;999.90;;;;;;;;;;5015834;28;20022;-67
2024/01/09 12:34:48;;;;;;;1499.25;999.90;;;;;;;;;;5015791;28;20054;-67
2024/01/09 12:37:15;;;;;;;1491.22;999.90;;;;;;;;;;5015636;28;20088;-67
2024/01/09 12:39:42;;;;;;;1470.88;999.90;;;;;;;;;;5024630;28;20030;-68
2024/01/09 12:42:10;;;;;;;1478.05;999.90;;;;;;;;;;5037485;28;20113;-70
2024/01/09 12:44:38;;;;;;;1489.75;999.90;;;;;;;;;;5050576;28;20020;-67
2024/01/09 12:47:04;;;;;;;1496.88;999.90;;;;;;;;;;5055120;28;20029;-68
2024/01/09 12:49:31;;;;;;;1470.97;999.90;;;;;;;;;;5054656;28;20040;-67
2024/01/09 12:51:58;;;;;;;1483.95;999.90;;;;;;;;;;5054339;28;20029;-67
2024/01/09 12:54:24;;;;;;;1490.13;999.90;;;;;;;;;;5054873;28;20439;-67
2024/01/09 12:56:51;;;;;;;1494.20;999.90;;;;;;;;;;5054981;28;20071;-66
2024/01/09 12:59:22;;;;;;;1492.10;999.90;;;;;;;;;;5045508;28;20036;-67
2024/01/09 13:01:49;;;;;;;1492.13;999.90;;;;;;;;;;5053932;28;20029;-66
2024/01/09 13:04:16;;;;;;;1479.63;999.90;;;;;;;;;;5036791;28;20033;-65
2024/01/09 13:06:42;;;;;;;1496.88;999.90;;;;;;;;;;5020901;28;20029;-65
2024/01/09 13:09:10;;;;;;;1465.10;999.90;;;;;;;;;;5014864;28;20037;-65
2024/01/09 13:11:42;;;;;;;1493.25;999.90;;;;;;;;;;5030870;28;20021;-65
2024/01/09 13:14:10;;;;;;;1488.82;999.90;;;;;;;;;;5034153;28;20057;-66
2024/01/09 13:16:37;;;;;;;1455.25;999.90;;;;;;;;;;5030476;28;20029;-64
2024/01/09 13:19:03;;;;;;;1489.95;999.90;;;;;;;;;;5034045;28;20056;-64
2024/01/09 13:21:30;;;;;;;1457.53;999.90;;;;;;;;;;5033678;28;20029;-66
2024/01/09 13:23:57;;;;;;;1495.85;999.90;;;;;;;;;;5033309;28;20081;-68
2024/01/09 13:26:24;;;;;;;1467.93;999.90;;;;;;;;;;5032033;28;20080;-67
2024/01/09 13:28:50;;;;;;;1490.05;999.90;;;;;;;;;;5033165;28;20079;-67
2024/01/09 13:31:17;;;;;;;1505.28;999.90;;;;;;;;;;5033798;28;20029;-67
2024/01/09 13:33:44;;;;;;;1506.00;999.90;;;;;;;;;;5033851;28;20056;-67
2024/01/09 13:36:11;;;;;;;1509.22;999.90;;;;;;;;;;5033686;28;20045;-67
2024/01/09 13:38:37;;;;;;;1470.70;999.90;;;;;;;;;;5033771;28;20025;-66
2024/01/09 13:41:07;;;;;;;1467.95;999.90;;;;;;;;;;5033720;28;20022;-66